Time;durP1;ratioP1;P1;durP2;ratioP2;P2;SDS_P1;SDS_P2;PMS_P1;PMS_P2;Temp;Humidity;BMP_temperature;BMP_pressure;BME280_temperature;BME280_humidity;BME280_pressure;Samples;Min_cycle;Max_cycle;Signal;HPM_P1;HPM_P2
2021/01/12 00:01:43;;;;;;;10.27;7.87;;;;;;;;;;5067224;28;20016;-61
2021/01/12 00:04:08;;;;;;;11.33;7.60;;;;;;;;;;5063368;28;20070;-61
2021/01/12 00:06:33;;;;;;;12.10;8.23;;;;;;;;;;5065359;28;20137;-61
2021/01/12 00:08:58;;;;;;;12.90;8.30;;;;;;;;;;5049551;28;20430;-61
2021/01/12 00:11:24;;;;;;;12.07;8.40;;;;;;;;;;5071715;28;20028;-62
2021/01/12 00:13:49;;;;;;;9.73;6.47;;;;;;;;;;5079790;28;20020;-61
2021/01/12 00:16:17;;;;;;;11.53;8.00;;;;;;;;;;5079372;28;20021;-62
2021/01/12 00:18:42;;;;;;;12.37;7.87;;;;;;;;;;5069894;28;20012;-61
2021/01/12 00:21:08;;;;;;;10.13;6.73;;;;;;;;;;5074191;28;20027;-60
2021/01/12 00:23:33;;;;;;;11.73;9.57;;;;;;;;;;5072157;28;20024;-61
2021/01/12 00:25:58;;;;;;;12.87;8.60;;;;;;;;;;5073547;28;20039;-62
2021/01/12 00:28:23;;;;;;;11.67;7.77;;;;;;;;;;5063299;28;20044;-61
2021/01/12 00:30:48;;;;;;;11.30;9.00;;;;;;;;;;5062632;28;20081;-61
2021/01/12 00:33:14;;;;;;;10.00;6.30;;;;;;;;;;5069033;28;20507;-61
2021/01/12 00:35:39;;;;;;;10.90;6.57;;;;;;;;;;5052151;28;20043;-61
2021/01/12 00:38:05;;;;;;;12.30;8.77;;;;;;;;;;5072081;28;20036;-61
2021/01/12 00:40:39;;;;;;;12.30;7.07;;;;;;;;;;5070545;28;20055;-61
2021/01/12 00:43:04;;;;;;;12.13;7.30;;;;;;;;;;5080316;28;20032;-61
2021/01/12 00:45:29;;;;;;;10.27;5.10;;;;;;;;;;5093491;28;20012;-62
2021/01/12 00:47:54;;;;;;;12.10;7.30;;;;;;;;;;5076191;28;20027;-62
2021/01/12 00:50:20;;;;;;;10.77;6.17;;;;;;;;;;5084264;28;20050;-62
2021/01/12 00:52:45;;;;;;;12.50;9.40;;;;;;;;;;5072494;28;20513;-61
2021/01/12 00:55:10;;;;;;;9.60;4.87;;;;;;;;;;5073298;28;20118;-62
2021/01/12 00:57:37;;;;;;;11.90;6.97;;;;;;;;;;5072619;28;20077;-62
2021/01/12 01:00:03;;;;;;;12.27;8.43;;;;;;;;;;5080134;28;20031;-62
2021/01/12 01:02:28;;;;;;;10.90;7.10;;;;;;;;;;5069957;28;20020;-62
2021/01/12 01:04:53;;;;;;;11.63;9.07;;;;;;;;;;5065079;28;20056;-61
2021/01/12 01:07:19;;;;;;;16.57;7.03;;;;;;;;;;5072472;28;20043;-62
2021/01/12 01:09:44;;;;;;;13.07;11.63;;;;;;;;;;5068477;28;20107;-62
2021/01/12 01:12:12;;;;;;;9.87;5.10;;;;;;;;;;5072056;28;20032;-62
2021/01/12 01:14:37;;;;;;;13.80;8.80;;;;;;;;;;5077084;28;20100;-62
2021/01/12 01:17:02;;;;;;;13.70;10.60;;;;;;;;;;5064943;28;20128;-62
2021/01/12 01:19:27;;;;;;;8.97;4.47;;;;;;;;;;5068788;28;20015;-61
2021/01/12 01:21:53;;;;;;;12.27;9.27;;;;;;;;;;5071532;28;20028;-62
2021/01/12 01:24:18;;;;;;;12.77;9.07;;;;;;;;;;5084834;28;20082;-62
2021/01/12 01:26:43;;;;;;;12.50;11.07;;;;;;;;;;5072836;28;20032;-62
2021/01/12 01:29:08;;;;;;;13.37;11.97;;;;;;;;;;5069511;28;20024;-62
2021/01/12 01:31:35;;;;;;;12.40;8.93;;;;;;;;;;5072319;28;20013;-62
2021/01/12 01:34:00;;;;;;;9.20;5.07;;;;;;;;;;5073780;28;20399;-62
2021/01/12 01:36:25;;;;;;;14.33;9.33;;;;;;;;;;5066668;28;20028;-62
2021/01/12 01:38:50;;;;;;;12.63;9.40;;;;;;;;;;5074647;28;20273;-60
2021/01/12 01:41:16;;;;;;;9.10;6.73;;;;;;;;;;5072159;28;20360;-62
2021/01/12 01:43:41;;;;;;;12.87;8.73;;;;;;;;;;5071259;28;20428;-62
2021/01/12 01:46:06;;;;;;;8.70;3.87;;;;;;;;;;5071480;28;20023;-62
2021/01/12 01:48:31;;;;;;;12.73;10.93;;;;;;;;;;5066742;28;20733;-61
2021/01/12 01:50:57;;;;;;;12.17;8.93;;;;;;;;;;5071581;28;20024;-61
2021/01/12 01:53:22;;;;;;;12.63;9.47;;;;;;;;;;5067629;28;20024;-61
2021/01/12 01:55:52;;;;;;;10.20;8.00;;;;;;;;;;5059829;28;20035;-61
2021/01/12 01:58:17;;;;;;;13.60;7.77;;;;;;;;;;5078021;28;20024;-61
2021/01/12 02:00:42;;;;;;;8.57;5.30;;;;;;;;;;5073696;28;20471;-61
2021/01/12 02:03:22;;;;;;;11.20;7.23;;;;;;;;;;5071940;28;20017;-62
2021/01/12 02:06:03;;;;;;;9.70;5.20;;;;;;;;;;5072363;28;20013;-61
2021/01/12 02:08:32;;;;;;;9.23;5.77;;;;;;;;;;5070197;28;20024;-61
2021/01/12 02:10:59;;;;;;;11.93;6.80;;;;;;;;;;5071349;28;20025;-62
2021/01/12 02:13:26;;;;;;;13.17;7.47;;;;;;;;;;5070487;28;20401;-62
2021/01/12 02:15:54;;;;;;;13.10;11.73;;;;;;;;;;5072014;28;20425;-62
2021/01/12 02:18:19;;;;;;;11.47;9.20;;;;;;;;;;5077681;28;20467;-61
2021/01/12 02:20:44;;;;;;;14.37;9.60;;;;;;;;;;5085137;28;20016;-61
2021/01/12 02:23:13;;;;;;;9.40;4.67;;;;;;;;;;5066125;28;20025;-61
2021/01/12 02:25:38;;;;;;;10.40;8.90;;;;;;;;;;5060183;28;20128;-61
2021/01/12 02:28:05;;;;;;;7.83;4.47;;;;;;;;;;5060526;28;20052;-60
2021/01/12 02:30:30;;;;;;;11.23;7.20;;;;;;;;;;5061938;28;20471;-61
2021/01/12 02:32:55;;;;;;;11.27;7.13;;;;;;;;;;5071849;28;20028;-61
2021/01/12 02:35:21;;;;;;;10.73;7.77;;;;;;;;;;5071123;28;20020;-61
2021/01/12 02:37:47;;;;;;;9.17;6.70;;;;;;;;;;5087758;28;20024;-61
2021/01/12 02:40:13;;;;;;;11.07;7.53;;;;;;;;;;5067872;28;20360;-61
2021/01/12 02:42:41;;;;;;;9.77;7.00;;;;;;;;;;5059207;28;20021;-61
2021/01/12 02:45:06;;;;;;;10.90;9.03;;;;;;;;;;5059767;28;20056;-61
2021/01/12 02:47:31;;;;;;;11.90;7.43;;;;;;;;;;5068638;28;20387;-61
2021/01/12 02:49:57;;;;;;;9.10;6.40;;;;;;;;;;5058911;28;20025;-61
2021/01/12 02:52:22;;;;;;;11.50;9.77;;;;;;;;;;5074749;28;20033;-62
2021/01/12 02:54:47;;;;;;;10.20;7.67;;;;;;;;;;5071048;28;20055;-61
2021/01/12 02:57:12;;;;;;;8.53;5.33;;;;;;;;;;5071607;28;20033;-61
2021/01/12 02:59:37;;;;;;;7.33;4.10;;;;;;;;;;5068569;28;20024;-61
2021/01/12 03:02:03;;;;;;;11.17;7.77;;;;;;;;;;5073673;28;20395;-62
2021/01/12 03:04:28;;;;;;;9.90;7.93;;;;;;;;;;5066765;28;20025;-61
2021/01/12 03:06:53;;;;;;;10.13;7.50;;;;;;;;;;5053955;28;20044;-62
2021/01/12 03:09:18;;;;;;;8.23;5.73;;;;;;;;;;5062109;28;20020;-61
2021/01/12 03:11:48;;;;;;;6.23;2.80;;;;;;;;;;5073784;28;20119;-61
2021/01/12 03:14:13;;;;;;;8.77;5.47;;;;;;;;;;5091494;28;20028;-60
2021/01/12 03:16:39;;;;;;;11.73;7.87;;;;;;;;;;5082829;28;20039;-60
2021/01/12 03:19:04;;;;;;;11.30;8.23;;;;;;;;;;5060886;28;20434;-60
2021/01/12 03:21:29;;;;;;;11.27;8.03;;;;;;;;;;5073521;28;20048;-61
2021/01/12 03:23:54;;;;;;;11.93;7.47;;;;;;;;;;5074493;28;20036;-60
2021/01/12 03:26:20;;;;;;;11.70;8.90;;;;;;;;;;5073579;28;20410;-61
2021/01/12 03:28:46;;;;;;;13.97;6.80;;;;;;;;;;5070287;28;20127;-61
2021/01/12 03:31:11;;;;;;;10.83;6.93;;;;;;;;;;5070779;28;20100;-61
2021/01/12 03:33:36;;;;;;;8.97;6.20;;;;;;;;;;5065727;28;20353;-60
2021/01/12 03:36:01;;;;;;;11.87;10.60;;;;;;;;;;5074976;28;20482;-61
2021/01/12 03:38:27;;;;;;;9.77;7.80;;;;;;;;;;5072206;28;20016;-61
2021/01/12 03:40:52;;;;;;;10.97;8.63;;;;;;;;;;5073634;28;20017;-61
2021/01/12 03:43:18;;;;;;;10.07;6.60;;;;;;;;;;5073507;28;20024;-62
2021/01/12 03:45:43;;;;;;;12.20;8.83;;;;;;;;;;5076392;28;20115;-61
2021/01/12 03:48:08;;;;;;;10.47;5.80;;;;;;;;;;5082838;28;20025;-61
2021/01/12 03:50:34;;;;;;;9.23;5.97;;;;;;;;;;5069820;28;20032;-61
2021/01/12 03:52:59;;;;;;;9.93;6.53;;;;;;;;;;5063501;28;20116;-61
2021/01/12 03:55:24;;;;;;;13.00;11.57;;;;;;;;;;5067610;28;20036;-61
2021/01/12 03:57:49;;;;;;;9.37;5.47;;;;;;;;;;5089800;28;20028;-61
2021/01/12 04:00:15;;;;;;;14.13;11.10;;;;;;;;;;5069858;28;20027;-61
2021/01/12 04:02:40;;;;;;;14.73;10.67;;;;;;;;;;5074387;28;20407;-61
2021/01/12 04:05:06;;;;;;;12.43;9.20;;;;;;;;;;5074308;28;20459;-61
2021/01/12 04:07:31;;;;;;;11.37;6.27;;;;;;;;;;5072721;28;20025;-61
2021/01/12 04:09:56;;;;;;;17.30;10.77;;;;;;;;;;5070487;28;20017;-61
2021/01/12 04:12:22;;;;;;;16.00;9.97;;;;;;;;;;5072512;28;20459;-61
2021/01/12 04:14:47;;;;;;;15.93;13.47;;;;;;;;;;5073683;28;20467;-62
2021/01/12 04:17:12;;;;;;;25.27;14.20;;;;;;;;;;5078889;28;20462;-62
2021/01/12 04:19:37;;;;;;;16.63;10.47;;;;;;;;;;5081962;28;20523;-62
2021/01/12 04:22:03;;;;;;;17.63;12.57;;;;;;;;;;5073855;28;20028;-62
2021/01/12 04:24:28;;;;;;;11.30;6.77;;;;;;;;;;5068214;28;20336;-62
2021/01/12 04:26:53;;;;;;;16.50;12.13;;;;;;;;;;5073811;28;20032;-62
2021/01/12 04:29:18;;;;;;;14.70;11.17;;;;;;;;;;5070287;28;20099;-62
2021/01/12 04:31:43;;;;;;;17.20;13.07;;;;;;;;;;5073563;28;20016;-62
2021/01/12 04:34:09;;;;;;;14.47;12.17;;;;;;;;;;5073690;28;20028;-62
2021/01/12 04:36:34;;;;;;;16.23;13.13;;;;;;;;;;5080163;28;20481;-62
2021/01/12 04:38:59;;;;;;;9.17;5.93;;;;;;;;;;5053321;28;20024;-62
2021/01/12 04:41:25;;;;;;;12.60;7.80;;;;;;;;;;5073269;28;20028;-62
2021/01/12 04:43:51;;;;;;;12.07;9.30;;;;;;;;;;5073628;28;20546;-62
2021/01/12 04:46:16;;;;;;;14.83;11.60;;;;;;;;;;5072147;28;20150;-62
2021/01/12 04:48:42;;;;;;;15.03;10.93;;;;;;;;;;5067824;28;20020;-62
2021/01/12 04:51:08;;;;;;;14.47;10.87;;;;;;;;;;5073228;28;20031;-63
2021/01/12 04:53:47;;;;;;;18.03;10.97;;;;;;;;;;5072583;28;20475;-62
2021/01/12 04:56:16;;;;;;;18.03;14.50;;;;;;;;;;5072020;28;20016;-62
2021/01/12 04:58:42;;;;;;;12.37;7.90;;;;;;;;;;5069889;28;20025;-61
2021/01/12 05:01:08;;;;;;;19.17;13.83;;;;;;;;;;5055634;28;20092;-62
2021/01/12 05:03:34;;;;;;;19.40;13.73;;;;;;;;;;5071393;28;20123;-60
2021/01/12 05:05:59;;;;;;;18.67;10.23;;;;;;;;;;5079040;28;20020;-60
2021/01/12 05:08:24;;;;;;;18.57;13.60;;;;;;;;;;5080515;28;20032;-61
2021/01/12 05:10:50;;;;;;;22.27;16.00;;;;;;;;;;5071412;28;20062;-60
2021/01/12 05:13:17;;;;;;;20.27;13.70;;;;;;;;;;5072859;28;20073;-61
2021/01/12 05:15:46;;;;;;;20.97;14.07;;;;;;;;;;5076192;28;20027;-61
2021/01/12 05:18:15;;;;;;;21.67;12.87;;;;;;;;;;5072644;28;20438;-61
2021/01/12 05:20:44;;;;;;;20.37;15.40;;;;;;;;;;5070406;28;20016;-61
2021/01/12 05:23:11;;;;;;;10.67;5.50;;;;;;;;;;5074449;28;20127;-61
2021/01/12 05:25:39;;;;;;;12.73;7.77;;;;;;;;;;5065957;28;20041;-61
2021/01/12 05:28:05;;;;;;;15.43;9.67;;;;;;;;;;5070559;28;20052;-61
2021/01/12 05:30:30;;;;;;;17.43;13.37;;;;;;;;;;5067886;28;20083;-62
2021/01/12 05:32:56;;;;;;;15.57;10.80;;;;;;;;;;5076556;28;20038;-61
2021/01/12 05:35:25;;;;;;;17.33;11.03;;;;;;;;;;5076564;28;20073;-61
2021/01/12 05:37:52;;;;;;;16.37;13.27;;;;;;;;;;5072214;28;20047;-61
2021/01/12 05:40:21;;;;;;;8.67;4.13;;;;;;;;;;5062939;28;20100;-61
2021/01/12 05:42:46;;;;;;;14.67;9.10;;;;;;;;;;5062537;28;20073;-61
2021/01/12 05:45:11;;;;;;;17.03;11.33;;;;;;;;;;5092805;28;20441;-61
2021/01/12 05:47:36;;;;;;;16.77;9.97;;;;;;;;;;5072144;28;20025;-61
2021/01/12 05:50:02;;;;;;;17.47;12.73;;;;;;;;;;5069235;28;20412;-61
2021/01/12 05:52:34;;;;;;;17.00;10.77;;;;;;;;;;5067358;28;20028;-61
2021/01/12 05:55:04;;;;;;;13.37;8.90;;;;;;;;;;5050928;28;20067;-61
2021/01/12 05:57:30;;;;;;;17.03;12.03;;;;;;;;;;5068508;28;20016;-61
2021/01/12 06:00:00;;;;;;;14.47;9.93;;;;;;;;;;5069164;28;20020;-61
2021/01/12 06:02:25;;;;;;;15.20;9.70;;;;;;;;;;5076594;28;20541;-61
2021/01/12 06:04:51;;;;;;;10.97;6.40;;;;;;;;;;5061786;28;20017;-61
2021/01/12 06:07:16;;;;;;;15.73;13.43;;;;;;;;;;5050783;28;20032;-61
2021/01/12 06:09:42;;;;;;;15.07;8.70;;;;;;;;;;5053938;28;20012;-61
2021/01/12 06:12:08;;;;;;;10.80;8.13;;;;;;;;;;5070735;28;20042;-61
2021/01/12 06:14:37;;;;;;;11.27;7.30;;;;;;;;;;5071982;28;20024;-61
2021/01/12 06:17:02;;;;;;;9.90;6.37;;;;;;;;;;5070394;28;20017;-62
2021/01/12 06:19:28;;;;;;;5.40;2.40;;;;;;;;;;5068695;28;20013;-63
2021/01/12 06:21:54;;;;;;;10.70;6.50;;;;;;;;;;5071919;28;20024;-61
2021/01/12 06:24:42;;;;;;;10.23;9.17;;;;;;;;;;5071649;28;20051;-62
2021/01/12 06:27:15;;;;;;;11.90;9.10;;;;;;;;;;5062260;28;20064;-62
2021/01/12 06:29:41;;;;;;;8.50;6.27;;;;;;;;;;5062052;28;20105;-62
2021/01/12 06:32:07;;;;;;;11.07;9.90;;;;;;;;;;5069890;28;20030;-62
2021/01/12 06:34:32;;;;;;;12.93;9.27;;;;;;;;;;5073050;28;20669;-61
2021/01/12 06:36:59;;;;;;;12.27;9.23;;;;;;;;;;5066258;28;20551;-61
2021/01/12 06:39:44;;;;;;;12.17;8.73;;;;;;;;;;5052292;28;20083;-62
2021/01/12 06:42:10;;;;;;;13.32;10.88;;;;;;;;;;5060792;28;20035;-62
2021/01/12 06:44:36;;;;;;;17.10;11.07;;;;;;;;;;5075494;28;20096;-61
2021/01/12 06:47:02;;;;;;;18.20;13.07;;;;;;;;;;5074085;28;20051;-62
2021/01/12 06:49:28;;;;;;;6.73;3.93;;;;;;;;;;5072003;28;20020;-62
2021/01/12 06:52:04;;;;;;;18.20;12.47;;;;;;;;;;5068924;28;20170;-62
2021/01/12 06:54:36;;;;;;;16.90;13.90;;;;;;;;;;5061961;28;20021;-62
2021/01/12 06:57:05;;;;;;;20.87;12.23;;;;;;;;;;5060561;28;20032;-62
2021/01/12 06:59:34;;;;;;;21.33;14.33;;;;;;;;;;5059604;28;20078;-62
2021/01/12 07:01:59;;;;;;;24.83;16.20;;;;;;;;;;5056323;28;20024;-62
2021/01/12 07:04:27;;;;;;;24.77;14.03;;;;;;;;;;5065064;28;20375;-62
2021/01/12 07:06:55;;;;;;;23.93;12.17;;;;;;;;;;5065715;28;20057;-62
2021/01/12 07:09:20;;;;;;;24.33;12.43;;;;;;;;;;5061903;28;20426;-62
2021/01/12 07:11:46;;;;;;;34.33;13.07;;;;;;;;;;5064910;28;20025;-63
2021/01/12 07:14:11;;;;;;;26.10;13.67;;;;;;;;;;5065831;28;20478;-63
2021/01/12 07:16:36;;;;;;;26.00;12.43;;;;;;;;;;5064128;28;20039;-62
2021/01/12 07:19:02;;;;;;;22.80;14.60;;;;;;;;;;5066080;28;20392;-63
2021/01/12 07:21:28;;;;;;;30.97;13.60;;;;;;;;;;5074866;28;20455;-63
2021/01/12 07:23:58;;;;;;;17.97;11.83;;;;;;;;;;5059625;28;20036;-63
2021/01/12 07:26:23;;;;;;;13.00;6.00;;;;;;;;;;5067963;28;20027;-63
2021/01/12 07:28:49;;;;;;;16.03;12.47;;;;;;;;;;5063371;28;20021;-63
2021/01/12 07:31:14;;;;;;;18.07;13.80;;;;;;;;;;5075230;28;20395;-63
2021/01/12 07:33:40;;;;;;;20.03;9.80;;;;;;;;;;5064335;28;20023;-63
2021/01/12 07:36:05;;;;;;;18.33;12.60;;;;;;;;;;5057029;28;20052;-63
2021/01/12 07:38:31;;;;;;;22.57;8.90;;;;;;;;;;5060614;28;20111;-63
2021/01/12 07:40:57;;;;;;;14.73;9.20;;;;;;;;;;5057362;28;20036;-63
2021/01/12 07:43:23;;;;;;;20.47;12.10;;;;;;;;;;5072881;28;20078;-63
2021/01/12 07:45:49;;;;;;;17.37;10.60;;;;;;;;;;5064866;28;20021;-64
2021/01/12 07:48:15;;;;;;;16.00;11.10;;;;;;;;;;5070767;28;20119;-63
2021/01/12 07:50:44;;;;;;;16.93;9.23;;;;;;;;;;5060739;28;20119;-64
2021/01/12 07:53:10;;;;;;;17.23;12.33;;;;;;;;;;5070995;28;20032;-63
2021/01/12 07:55:41;;;;;;;15.57;10.80;;;;;;;;;;5062609;28;20075;-63
2021/01/12 07:58:07;;;;;;;20.23;9.83;;;;;;;;;;5053537;28;20100;-64
2021/01/12 08:00:33;;;;;;;8.43;5.33;;;;;;;;;;5049389;28;20071;-63
2021/01/12 08:02:59;;;;;;;18.50;9.23;;;;;;;;;;5070398;28;20355;-64
2021/01/12 08:05:25;;;;;;;8.77;3.27;;;;;;;;;;5065542;28;20021;-64
2021/01/12 08:08:10;;;;;;;13.87;10.10;;;;;;;;;;5069023;28;20031;-64
2021/01/12 08:10:39;;;;;;;17.17;9.27;;;;;;;;;;5068194;28;20063;-64
2021/01/12 08:13:08;;;;;;;15.70;10.77;;;;;;;;;;5061619;28;20039;-64
2021/01/12 08:15:36;;;;;;;17.67;9.07;;;;;;;;;;5074496;28;20035;-64
2021/01/12 08:18:03;;;;;;;8.37;2.83;;;;;;;;;;5092098;28;20020;-65
2021/01/12 08:20:29;;;;;;;11.97;7.90;;;;;;;;;;5068003;28;20060;-64
2021/01/12 08:22:55;;;;;;;12.57;5.00;;;;;;;;;;5061182;28;20024;-64
2021/01/12 08:25:20;;;;;;;12.93;9.10;;;;;;;;;;5053032;28;20483;-64
2021/01/12 08:27:53;;;;;;;14.77;9.30;;;;;;;;;;5053690;28;20023;-64
2021/01/12 08:30:22;;;;;;;12.80;5.13;;;;;;;;;;5050389;28;20043;-64
2021/01/12 08:32:58;;;;;;;5.97;4.07;;;;;;;;;;5070970;28;20493;-64
2021/01/12 08:35:25;;;;;;;11.83;9.17;;;;;;;;;;5070020;28;20035;-66
2021/01/12 08:37:51;;;;;;;13.37;8.33;;;;;;;;;;5059643;28;20167;-64
2021/01/12 08:40:17;;;;;;;9.87;2.47;;;;;;;;;;5062883;28;20020;-64
2021/01/12 08:42:42;;;;;;;14.20;6.90;;;;;;;;;;5053789;28;20020;-65
2021/01/12 08:45:08;;;;;;;6.43;3.93;;;;;;;;;;5051242;28;20044;-65
2021/01/12 08:47:33;;;;;;;12.03;5.70;;;;;;;;;;5055714;28;20119;-66
2021/01/12 08:50:00;;;;;;;14.13;6.30;;;;;;;;;;5069822;28;20074;-64
2021/01/12 08:52:26;;;;;;;9.20;5.07;;;;;;;;;;5061702;28;20028;-65
2021/01/12 08:54:51;;;;;;;5.57;4.33;;;;;;;;;;5064462;28;20028;-66
2021/01/12 08:57:16;;;;;;;12.37;5.03;;;;;;;;;;5052485;28;20104;-66
2021/01/12 08:59:41;;;;;;;7.20;5.47;;;;;;;;;;5054708;28;20452;-66
2021/01/12 09:02:07;;;;;;;6.40;4.63;;;;;;;;;;5072663;28;20459;-66
2021/01/12 09:04:32;;;;;;;7.83;5.57;;;;;;;;;;5071872;28;20216;-66
2021/01/12 09:07:04;;;;;;;6.63;4.20;;;;;;;;;;5069781;28;20426;-67
2021/01/12 09:09:30;;;;;;;6.40;4.03;;;;;;;;;;5051004;28;20070;-66
2021/01/12 09:11:59;;;;;;;5.13;2.27;;;;;;;;;;5071668;28;20375;-65
2021/01/12 09:14:25;;;;;;;4.90;2.40;;;;;;;;;;5068852;28;20497;-66
2021/01/12 09:16:54;;;;;;;4.60;4.10;;;;;;;;;;5077817;28;20074;-68
2021/01/12 09:19:19;;;;;;;3.50;2.53;;;;;;;;;;5071269;28;20490;-67
2021/01/12 09:21:45;;;;;;;8.60;4.57;;;;;;;;;;5058462;28;20029;-68
2021/01/12 09:24:17;;;;;;;4.47;2.80;;;;;;;;;;5051767;28;20098;-66
2021/01/12 09:26:42;;;;;;;7.43;4.00;;;;;;;;;;5052237;28;20056;-66
2021/01/12 09:29:08;;;;;;;3.23;1.53;;;;;;;;;;5064977;28;20043;-67
2021/01/12 09:31:40;;;;;;;5.17;3.90;;;;;;;;;;5051910;28;20017;-66
2021/01/12 09:34:06;;;;;;;9.67;2.97;;;;;;;;;;5060839;28;20032;-67
2021/01/12 09:36:32;;;;;;;8.47;3.17;;;;;;;;;;5066037;28;20025;-67
2021/01/12 09:38:57;;;;;;;6.33;3.50;;;;;;;;;;5054433;28;20479;-67
2021/01/12 09:41:27;;;;;;;6.20;2.73;;;;;;;;;;5067089;28;20482;-67
2021/01/12 09:43:52;;;;;;;7.03;3.13;;;;;;;;;;5069954;28;20090;-67
2021/01/12 09:46:18;;;;;;;2.63;1.70;;;;;;;;;;5056807;28;20044;-66
2021/01/12 09:48:43;;;;;;;2.30;0.90;;;;;;;;;;5058060;28;20530;-68
2021/01/12 09:51:09;;;;;;;9.50;3.00;;;;;;;;;;5071862;28;20055;-68
2021/01/12 09:53:34;;;;;;;6.07;2.77;;;;;;;;;;5067135;28;20368;-66
2021/01/12 09:56:01;;;;;;;8.90;3.77;;;;;;;;;;5066272;28;20016;-65
2021/01/12 09:58:27;;;;;;;3.83;2.60;;;;;;;;;;5054735;28;20087;-66
2021/01/12 10:00:52;;;;;;;4.00;2.37;;;;;;;;;;5070186;28;20012;-67
2021/01/12 10:03:18;;;;;;;5.77;2.83;;;;;;;;;;5070932;28;20112;-66
2021/01/12 10:05:43;;;;;;;4.60;2.07;;;;;;;;;;5070849;28;20016;-66
2021/01/12 10:08:08;;;;;;;5.10;2.90;;;;;;;;;;5071741;28;20075;-66
2021/01/12 10:10:34;;;;;;;3.90;2.37;;;;;;;;;;5068450;28;20457;-65
2021/01/12 10:13:00;;;;;;;2.03;0.60;;;;;;;;;;5062530;28;20378;-66
2021/01/12 10:15:25;;;;;;;6.07;2.40;;;;;;;;;;5057974;28;20028;-65
2021/01/12 10:17:50;;;;;;;2.93;2.40;;;;;;;;;;5059090;28;20024;-67
2021/01/12 10:20:15;;;;;;;3.97;2.43;;;;;;;;;;5055691;28;20107;-66
2021/01/12 10:22:41;;;;;;;2.93;2.37;;;;;;;;;;5057104;28;20017;-65
2021/01/12 10:25:06;;;;;;;3.07;2.27;;;;;;;;;;5054170;28;20056;-68
2021/01/12 10:27:33;;;;;;;3.27;2.03;;;;;;;;;;5055256;28;20016;-65
2021/01/12 10:29:59;;;;;;;4.33;2.43;;;;;;;;;;5067179;28;20021;-65
2021/01/12 10:32:24;;;;;;;3.27;1.70;;;;;;;;;;5064989;28;20073;-65
2021/01/12 10:34:49;;;;;;;2.83;2.00;;;;;;;;;;5068763;28;20017;-66
2021/01/12 10:37:14;;;;;;;8.30;1.97;;;;;;;;;;5056487;28;20028;-65
2021/01/12 10:39:40;;;;;;;3.70;1.87;;;;;;;;;;5055793;28;20483;-66
2021/01/12 10:42:06;;;;;;;4.37;0.97;;;;;;;;;;5064761;28;20025;-66
2021/01/12 10:44:31;;;;;;;1.30;0.53;;;;;;;;;;5055364;28;20028;-65
2021/01/12 10:46:56;;;;;;;5.27;2.03;;;;;;;;;;5055039;28;20024;-65
2021/01/12 10:49:22;;;;;;;3.03;1.97;;;;;;;;;;5064301;28;20143;-64
2021/01/12 10:51:55;;;;;;;1.80;0.40;;;;;;;;;;5057379;28;20100;-65
2021/01/12 10:54:20;;;;;;;2.10;1.10;;;;;;;;;;5055589;28;20471;-64
2021/01/12 10:56:45;;;;;;;1.93;1.70;;;;;;;;;;5061845;28;20029;-64
2021/01/12 10:59:10;;;;;;;2.70;1.37;;;;;;;;;;5052077;28;20021;-64
2021/01/12 11:01:36;;;;;;;2.37;1.80;;;;;;;;;;5053802;28;20021;-63
2021/01/12 11:04:01;;;;;;;3.73;1.60;;;;;;;;;;5055195;28;20013;-63
2021/01/12 11:06:33;;;;;;;2.17;1.33;;;;;;;;;;5070039;28;20542;-63
2021/01/12 11:09:00;;;;;;;3.80;1.40;;;;;;;;;;5066507;28;20360;-63
2021/01/12 11:11:25;;;;;;;2.47;0.97;;;;;;;;;;5069385;28;20029;-63
2021/01/12 11:13:51;;;;;;;1.83;1.27;;;;;;;;;;5074843;28;20070;-63
2021/01/12 11:16:17;;;;;;;0.60;0.40;;;;;;;;;;5058699;28;20472;-63
2021/01/12 11:18:44;;;;;;;1.27;0.70;;;;;;;;;;5052881;28;20020;-65
2021/01/12 11:21:13;;;;;;;1.40;0.53;;;;;;;;;;5061568;28;20032;-64
2021/01/12 11:23:38;;;;;;;1.40;0.70;;;;;;;;;;5054941;28;20017;-64
2021/01/12 11:26:05;;;;;;;2.40;1.50;;;;;;;;;;5072460;28;20043;-64
2021/01/12 11:28:31;;;;;;;1.37;1.10;;;;;;;;;;5069196;28;20451;-64
2021/01/12 11:30:56;;;;;;;4.37;1.40;;;;;;;;;;5073454;28;20028;-64
2021/01/12 11:33:21;;;;;;;2.27;1.27;;;;;;;;;;5074158;28;20028;-64
2021/01/12 11:35:47;;;;;;;7.80;0.67;;;;;;;;;;5064175;28;20021;-64
2021/01/12 11:38:12;;;;;;;0.93;0.40;;;;;;;;;;5052612;28;20024;-63
2021/01/12 11:40:38;;;;;;;1.00;0.60;;;;;;;;;;5066397;28;20017;-63
2021/01/12 11:43:03;;;;;;;1.40;0.90;;;;;;;;;;5068836;28;20059;-63
2021/01/12 11:45:28;;;;;;;1.77;1.03;;;;;;;;;;5066775;28;20012;-63
2021/01/12 11:47:54;;;;;;;1.63;0.93;;;;;;;;;;5063660;28;20450;-62
2021/01/12 11:50:19;;;;;;;1.30;0.20;;;;;;;;;;5075486;28;20098;-63
2021/01/12 11:52:44;;;;;;;1.17;0.70;;;;;;;;;;5069002;28;20062;-62
2021/01/12 11:55:10;;;;;;;1.27;0.53;;;;;;;;;;5077962;28;20016;-61
2021/01/12 11:57:35;;;;;;;1.73;0.43;;;;;;;;;;5075241;28;20017;-62
2021/01/12 12:00:01;;;;;;;0.33;0.20;;;;;;;;;;5065531;28;20020;-61
2021/01/12 12:02:26;;;;;;;0.90;0.50;;;;;;;;;;5071039;28;20009;-61
2021/01/12 12:04:51;;;;;;;1.37;0.60;;;;;;;;;;5067486;28;20372;-61
2021/01/12 12:07:16;;;;;;;0.50;0.40;;;;;;;;;;5053214;28;20029;-60
2021/01/12 12:09:42;;;;;;;0.37;0.10;;;;;;;;;;5055477;28;20138;-60
2021/01/12 12:12:07;;;;;;;0.40;0.40;;;;;;;;;;5071941;28;20020;-61
2021/01/12 12:14:32;;;;;;;0.43;0.10;;;;;;;;;;5069736;28;20052;-61
2021/01/12 12:16:58;;;;;;;0.57;0.30;;;;;;;;;;5072397;28;20115;-61
2021/01/12 12:19:25;;;;;;;0.10;0.10;;;;;;;;;;5053303;28;20143;-62
2021/01/12 12:21:52;;;;;;;1.23;0.30;;;;;;;;;;5080921;28;20430;-62
2021/01/12 12:24:17;;;;;;;0.70;0.27;;;;;;;;;;5072976;28;20045;-62
2021/01/12 12:26:44;;;;;;;0.47;0.30;;;;;;;;;;5055708;28;20056;-61
2021/01/12 12:29:09;;;;;;;0.60;0.30;;;;;;;;;;5062390;28;20032;-62
2021/01/12 12:31:34;;;;;;;0.30;0.10;;;;;;;;;;5053838;28;20040;-61
2021/01/12 12:33:59;;;;;;;1.43;0.30;;;;;;;;;;5052444;28;20025;-61
2021/01/12 12:36:25;;;;;;;0.73;0.40;;;;;;;;;;5056902;28;20013;-61
2021/01/12 12:38:50;;;;;;;1.83;0.30;;;;;;;;;;5058346;28;20054;-62
2021/01/12 12:41:17;;;;;;;1.07;0.30;;;;;;;;;;5060569;28;20025;-61
2021/01/12 12:43:43;;;;;;;1.33;0.20;;;;;;;;;;5071379;28;20463;-62
2021/01/12 12:46:09;;;;;;;0.40;0.20;;;;;;;;;;5053683;28;20017;-61
2021/01/12 12:48:34;;;;;;;0.60;0.30;;;;;;;;;;5057195;28;20020;-61
2021/01/12 12:51:00;;;;;;;0.50;0.30;;;;;;;;;;5062335;28;20444;-61
2021/01/12 12:53:30;;;;;;;0.20;0.10;;;;;;;;;;5061343;28;20025;-61
2021/01/12 12:55:55;;;;;;;1.47;0.60;;;;;;;;;;5072620;28;20025;-61
2021/01/12 12:58:21;;;;;;;0.30;0.20;;;;;;;;;;5058927;28;20092;-61
2021/01/12 13:00:46;;;;;;;0.77;0.53;;;;;;;;;;5064487;28;20099;-60
2021/01/12 13:03:12;;;;;;;0.43;0.23;;;;;;;;;;5055834;28;20020;-61
2021/01/12 13:05:37;;;;;;;0.50;0.20;;;;;;;;;;5065050;28;20017;-61
2021/01/12 13:08:03;;;;;;;1.03;0.50;;;;;;;;;;5066072;28;20024;-61
2021/01/12 13:10:28;;;;;;;0.20;0.10;;;;;;;;;;5067857;28;20021;-61
2021/01/12 13:12:53;;;;;;;0.60;0.30;;;;;;;;;;5053008;28;20415;-61
2021/01/12 13:15:19;;;;;;;0.30;0.30;;;;;;;;;;5067519;28;20813;-61
2021/01/12 13:17:44;;;;;;;0.50;0.30;;;;;;;;;;5053734;28;20017;-60
2021/01/12 13:20:10;;;;;;;0.90;0.40;;;;;;;;;;5053342;28;20016;-61
2021/01/12 13:22:36;;;;;;;0.50;0.20;;;;;;;;;;5070161;28;20032;-61
2021/01/12 13:25:02;;;;;;;0.50;0.20;;;;;;;;;;5069940;28;20049;-61
2021/01/12 13:27:28;;;;;;;0.67;0.30;;;;;;;;;;5054905;28;20029;-61
2021/01/12 13:29:53;;;;;;;1.03;0.10;;;;;;;;;;5049269;28;20419;-61
2021/01/12 13:32:18;;;;;;;1.27;0.30;;;;;;;;;;5069741;28;20028;-62
2021/01/12 13:34:43;;;;;;;0.60;0.20;;;;;;;;;;5066586;28;20016;-62
2021/01/12 13:37:09;;;;;;;0.87;0.50;;;;;;;;;;5052462;28;20106;-61
2021/01/12 13:39:34;;;;;;;0.40;0.10;;;;;;;;;;5058333;28;20017;-62
2021/01/12 13:41:59;;;;;;;0.80;0.37;;;;;;;;;;5053809;28;20060;-61
2021/01/12 13:44:24;;;;;;;0.30;0.13;;;;;;;;;;5054473;28;20055;-61
2021/01/12 13:46:50;;;;;;;0.53;0.40;;;;;;;;;;5061095;28;20138;-61
2021/01/12 13:49:15;;;;;;;0.30;0.20;;;;;;;;;;5056033;28;20028;-61
2021/01/12 13:51:41;;;;;;;1.60;0.60;;;;;;;;;;5066851;28;20486;-60
2021/01/12 13:54:07;;;;;;;0.80;0.50;;;;;;;;;;5056660;28;20106;-60
2021/01/12 13:56:36;;;;;;;0.60;0.20;;;;;;;;;;5069311;28;20087;-60
2021/01/12 13:59:02;;;;;;;0.40;0.37;;;;;;;;;;5053297;28;20029;-60
2021/01/12 14:01:27;;;;;;;0.57;0.30;;;;;;;;;;5066850;28;20028;-60
2021/01/12 14:03:52;;;;;;;0.83;0.20;;;;;;;;;;5056375;28;20021;-60
2021/01/12 14:06:23;;;;;;;0.30;0.20;;;;;;;;;;5065531;28;20020;-60
2021/01/12 14:08:48;;;;;;;1.37;0.47;;;;;;;;;;5058591;28;20045;-61
2021/01/12 14:11:13;;;;;;;0.50;0.30;;;;;;;;;;5069978;28;20106;-60
2021/01/12 14:13:39;;;;;;;0.73;0.40;;;;;;;;;;5071975;28;20048;-60
2021/01/12 14:16:04;;;;;;;0.40;0.20;;;;;;;;;;5066652;28;20620;-60
2021/01/12 14:18:31;;;;;;;0.23;0.10;;;;;;;;;;5053808;28;20024;-61
2021/01/12 14:20:57;;;;;;;0.30;0.20;;;;;;;;;;5066175;28;20051;-61
2021/01/12 14:23:24;;;;;;;0.40;0.20;;;;;;;;;;5051305;28;20044;-61
2021/01/12 14:25:49;;;;;;;1.40;0.30;;;;;;;;;;5064858;28;20045;-62
2021/01/12 14:28:14;;;;;;;0.60;0.33;;;;;;;;;;5054261;28;20029;-62